Time;durP1;ratioP1;P1;durP2;ratioP2;P2;SDS_P1;SDS_P2;PMS_P1;PMS_P2;Temp;Humidity;BMP_temperature;BMP_pressure;BME280_temperature;BME280_humidity;BME280_pressure;Samples;Min_cycle;Max_cycle;Signal;HPM_P1;HPM_P2
2023/11/21 00:04:28;;;;;;;33.33;19.75;;;3.70;99.90;;;;;;25478255;23;20512;-58
2023/11/21 00:14:29;;;;;;;32.78;20.92;;;3.80;99.90;;;;;;25477579;23;20005;-60
2023/11/21 00:24:31;;;;;;;34.17;21.13;;;3.80;99.90;;;;;;25477277;23;20005;-59
2023/11/21 00:34:34;;;;;;;34.67;20.92;;;3.70;99.90;;;;;;25476286;23;20318;-53
2023/11/21 00:44:42;;;;;;;34.67;20.70;;;3.40;99.90;;;;;;25475015;23;20068;-53
2023/11/21 00:54:44;;;;;;;33.75;19.38;;;2.80;99.90;;;;;;25474048;23;20005;-52
2023/11/21 01:04:47;;;;;;;34.03;20.08;;;2.40;99.90;;;;;;25474396;23;20051;-52
2023/11/21 01:14:50;;;;;;;38.22;21.48;;;2.20;99.90;;;;;;25475484;23;20380;-60
2023/11/21 01:24:54;;;;;;;32.88;18.67;;;1.90;99.90;;;;;;25474890;23;20025;-51
2023/11/21 01:34:56;;;;;;;37.20;20.48;;;2.00;99.90;;;;;;25472654;23;20005;-52
2023/11/21 01:44:58;;;;;;;32.97;19.63;;;2.10;99.90;;;;;;25474027;23;20076;-56
2023/11/21 01:55:01;;;;;;;35.85;20.90;;;2.10;99.90;;;;;;25472130;23;20064;-53
2023/11/21 02:05:03;;;;;;;30.00;18.15;;;2.10;99.90;;;;;;25473358;23;20008;-50
2023/11/21 02:15:09;;;;;;;30.83;17.65;;;2.20;99.90;;;;;;25471327;23;20277;-52
2023/11/21 02:25:11;;;;;;;28.55;17.38;;;2.00;99.90;;;;;;25511764;23;19997;-58
2023/11/21 02:35:13;;;;;;;30.75;16.67;;;1.80;99.90;;;;;;25470520;23;20005;-58
2023/11/21 02:45:20;;;;;;;26.58;16.27;;;1.80;99.90;;;;;;25472026;23;20006;-57
2023/11/21 02:55:24;;;;;;;24.73;14.48;;;1.70;99.90;;;;;;25512230;23;20002;-60
2023/11/21 03:05:28;;;;;;;21.10;12.20;;;2.00;99.90;;;;;;25512364;23;20020;-59
2023/11/21 03:15:32;;;;;;;17.95;10.30;;;1.80;99.90;;;;;;25471339;23;20340;-56
2023/11/21 03:25:34;;;;;;;22.35;12.25;;;1.70;99.90;;;;;;25470748;23;20005;-59
2023/11/21 03:35:41;;;;;;;20.85;11.65;;;1.60;99.90;;;;;;25469108;23;20017;-59
2023/11/21 03:45:43;;;;;;;16.58;9.40;;;1.60;99.90;;;;;;25469692;23;20017;-60
2023/11/21 03:55:45;;;;;;;14.13;8.80;;;1.80;99.90;;;;;;25468160;23;20048;-60
2023/11/21 04:05:47;;;;;;;10.18;6.20;;;2.00;99.90;;;;;;25472482;23;20005;-60
2023/11/21 04:15:49;;;;;;;6.07;2.10;;;1.70;99.90;;;;;;25476309;23;20014;-59
2023/11/21 04:25:52;;;;;;;4.32;1.35;;;1.60;99.90;;;;;;25476749;23;20017;-60
2023/11/21 04:35:54;;;;;;;2.72;1.42;;;1.80;99.90;;;;;;25477025;23;20010;-60
2023/11/21 04:45:55;;;;;;;2.80;1.85;;;1.70;99.90;;;;;;25476490;23;20009;-60
2023/11/21 04:56:00;;;;;;;3.70;2.13;;;1.90;99.90;;;;;;25476164;23;20010;-61
2023/11/21 05:06:05;;;;;;;3.47;1.75;;;2.40;99.90;;;;;;25475499;23;20337;-60
2023/11/21 05:16:07;;;;;;;2.58;1.23;;;3.00;99.90;;;;;;25474135;23;20010;-61
2023/11/21 05:26:09;;;;;;;1.55;0.90;;;3.10;99.90;;;;;;25474895;23;20013;-61
2023/11/21 05:36:11;;;;;;;1.80;0.90;;;3.40;99.90;;;;;;25472964;23;20512;-61
2023/11/21 05:46:13;;;;;;;1.75;1.00;;;3.30;99.90;;;;;;25473725;23;20014;-60
2023/11/21 05:56:17;;;;;;;2.88;0.80;;;3.70;99.90;;;;;;25472253;23;20005;-60
2023/11/21 06:06:19;;;;;;;1.45;0.68;;;4.00;99.90;;;;;;25472870;23;20016;-61
2023/11/21 06:16:21;;;;;;;1.70;0.60;;;4.10;99.90;;;;;;25473219;23;20505;-60
2023/11/21 06:26:24;;;;;;;1.17;0.30;;;4.20;99.90;;;;;;25470780;23;20068;-53
2023/11/21 06:36:26;;;;;;;1.95;0.50;;;4.50;99.90;;;;;;25472711;23;20056;-56
2023/11/21 06:46:30;;;;;;;1.63;0.57;;;4.80;99.90;;;;;;25471919;23;20024;-50
2023/11/21 06:56:32;;;;;;;0.88;0.55;;;4.80;99.90;;;;;;25470475;23;20009;-58
2023/11/21 07:06:35;;;;;;;1.08;0.47;;;5.00;99.90;;;;;;25468559;23;20018;-60
2023/11/21 07:16:37;;;;;;;1.20;0.60;;;5.30;99.90;;;;;;25471686;23;20434;-46
2023/11/21 07:26:39;;;;;;;2.05;0.30;;;5.50;99.90;;;;;;25471073;23;20033;-54
2023/11/21 07:36:41;;;;;;;0.65;0.40;;;5.80;99.90;;;;;;25471669;23;20009;-53
2023/11/21 07:46:44;;;;;;;0.50;0.30;;;6.20;99.90;;;;;;25476994;23;20125;-60
2023/11/21 07:56:46;;;;;;;0.32;0.22;;;6.60;99.80;;;;;;25478730;23;20060;-53
2023/11/21 08:06:47;;;;;;;0.63;0.30;;;6.90;99.30;;;;;;25478077;23;20010;-58
2023/11/21 08:16:49;;;;;;;1.58;0.35;;;7.60;97.40;;;;;;25477887;23;20005;-55
2023/11/21 08:26:52;;;;;;;2.45;0.30;;;8.00;96.00;;;;;;25477406;23;20374;-60
2023/11/21 08:36:55;;;;;;;1.33;0.25;;;7.80;96.30;;;;;;25477294;23;20014;-58
2023/11/21 08:46:57;;;;;;;0.30;0.20;;;7.60;95.70;;;;;;25476258;23;20014;-60
2023/11/21 08:56:59;;;;;;;0.30;0.20;;;7.80;94.70;;;;;;25475005;23;20009;-60
2023/11/21 09:07:03;;;;;;;0.38;0.20;;;8.00;94.70;;;;;;25475806;23;20068;-61
2023/11/21 09:17:11;;;;;;;1.60;0.30;;;8.20;95.00;;;;;;25475401;23;20009;-59
2023/11/21 09:27:13;;;;;;;0.75;0.38;;;8.00;94.20;;;;;;25515867;23;20006;-60
2023/11/21 09:37:14;;;;;;;1.05;0.30;;;8.30;93.70;;;;;;25474489;23;20021;-51
2023/11/21 09:47:17;;;;;;;0.25;0.20;;;9.00;94.00;;;;;;25514771;23;20005;-59
2023/11/21 09:57:24;;;;;;;0.52;0.28;;;9.10;92.70;;;;;;25473949;23;20016;-49
2023/11/21 10:07:28;;;;;;;0.25;0.10;;;8.90;92.10;;;;;;25513806;23;20005;-52
2023/11/21 10:17:39;;;;;;;0.50;0.20;;;8.80;92.50;;;;;;25472390;23;20009;-55
2023/11/21 10:27:43;;;;;;;0.32;0.10;;;8.40;91.80;;;;;;25513631;23;20051;-60
2023/11/21 10:37:59;;;;;;;0.55;0.28;;;8.40;91.80;;;;;;25472227;23;20064;-60
2023/11/21 10:48:02;;;;;;;0.63;0.20;;;8.20;91.60;;;;;;25512708;23;20020;-57
2023/11/21 10:58:05;;;;;;;0.68;0.20;;;8.10;91.20;;;;;;25471032;23;20009;-60
2023/11/21 11:08:12;;;;;;;0.65;0.22;;;8.20;91.40;;;;;;25471098;23;20002;-56
2023/11/21 11:18:15;;;;;;;0.82;0.20;;;8.10;91.30;;;;;;25511842;23;20001;-60
2023/11/21 11:28:36;;;;;;;0.52;0.25;;;7.90;91.60;;;;;;25469736;23;20001;-59
2023/11/21 11:38:38;;;;;;;;;;;8.00;91.70;;;;;;25505880;23;20009;-54
2023/11/21 11:48:40;;;;;;;1.45;0.30;;;8.30;91.10;;;;;;25470775;23;19913;-49
2023/11/21 11:58:42;;;;;;;0.52;0.30;;;8.00;91.90;;;;;;25469264;23;20001;-47
2023/11/21 12:08:45;;;;;;;0.65;0.30;;;7.90;92.20;;;;;;25337292;23;20009;-60
2023/11/21 12:18:47;;;;;;;0.85;0.30;;;8.00;92.80;;;;;;25337076;23;20006;-61
2023/11/21 12:28:58;;;;;;;0.90;0.20;;;7.80;93.60;;;;;;25342635;23;20018;-61
2023/11/21 12:39:00;;;;;;;0.55;0.30;;;7.50;93.00;;;;;;25451268;23;20337;-60
2023/11/21 12:49:02;;;;;;;0.52;0.20;;;7.40;93.00;;;;;;25474873;23;20022;-52
2023/11/21 12:59:04;;;;;;;1.17;0.80;;;7.40;93.50;;;;;;25476487;23;20064;-58
2023/11/21 13:09:10;;;;;;;0.68;0.30;;;7.40;96.40;;;;;;25475836;23;20005;-47
2023/11/21 13:19:12;;;;;;;0.35;0.17;;;7.60;93.90;;;;;;25516140;23;20001;-60
2023/11/21 13:29:16;;;;;;;0.88;0.20;;;8.00;92.10;;;;;;25473859;23;20009;-58
2023/11/21 13:39:19;;;;;;;0.47;0.20;;;8.60;92.70;;;;;;25474265;23;20018;-55
2023/11/21 13:49:22;;;;;;;1.15;0.40;;;8.50;91.40;;;;;;25474416;23;20455;-56
2023/11/21 13:59:30;;;;;;;2.42;0.30;;;8.20;92.60;;;;;;25473717;23;20052;-52
2023/11/21 14:09:43;;;;;;;0.85;0.30;;;7.90;92.80;;;;;;25514262;23;20010;-59
2023/11/21 14:19:45;;;;;;;0.85;0.30;;;7.60;93.30;;;;;;25513705;23;20006;-52
2023/11/21 14:29:47;;;;;;;4.20;2.20;;;7.50;93.90;;;;;;25473010;23;20326;-49
2023/11/21 14:39:49;;;;;;;4.57;3.53;;;7.40;98.80;;;;;;25472073;23;20005;-60
2023/11/21 14:49:56;;;;;;;0.60;0.20;;;7.00;99.90;;;;;;25471190;23;20041;-60
2023/11/21 14:59:58;;;;;;;4.00;2.40;;;6.80;95.00;;;;;;25512756;23;20334;-48
2023/11/21 15:09:59;;;;;;;7.47;4.32;;;7.10;98.70;;;;;;25471579;23;20009;-60
2023/11/21 15:20:02;;;;;;;8.45;5.00;;;6.50;99.90;;;;;;25471490;23;20020;-53
2023/11/21 15:30:05;;;;;;;6.13;4.18;;;5.90;99.90;;;;;;25471312;23;20009;-47
2023/11/21 15:40:09;;;;;;;7.18;4.82;;;5.40;99.90;;;;;;25471009;23;20013;-59
2023/11/21 15:50:14;;;;;;;8.57;4.53;;;4.70;99.90;;;;;;25511545;23;20037;-57
2023/11/21 16:00:19;;;;;;;8.13;4.43;;;4.30;99.90;;;;;;25474602;23;20005;-58
2023/11/21 16:10:21;;;;;;;7.15;3.10;;;3.70;99.90;;;;;;25479557;23;20076;-60
2023/11/21 16:20:24;;;;;;;3.00;1.90;;;3.20;99.90;;;;;;25476331;23;20005;-60
2023/11/21 16:30:26;;;;;;;0.93;0.40;;;2.80;99.90;;;;;;25477476;23;20006;-60
2023/11/21 16:40:28;;;;;;;0.52;0.28;;;2.40;99.90;;;;;;25476947;23;20013;-55
2023/11/21 16:50:30;;;;;;;2.28;0.70;;;2.10;99.90;;;;;;25476746;23;20061;-59
2023/11/21 17:00:32;;;;;;;2.47;0.55;;;2.10;99.90;;;;;;25476301;23;20009;-61
2023/11/21 17:10:34;;;;;;;0.77;0.40;;;2.20;99.90;;;;;;25475016;23;20449;-60
2023/11/21 17:20:39;;;;;;;1.13;0.45;;;2.20;99.90;;;;;;25475507;23;20334;-60
2023/11/21 17:30:41;;;;;;;2.13;0.50;;;2.10;99.90;;;;;;25472032;23;20018;-59
2023/11/21 17:40:44;;;;;;;1.23;0.50;;;2.10;99.90;;;;;;25474251;23;20013;-53
2023/11/21 17:50:46;;;;;;;1.05;0.63;;;1.90;99.90;;;;;;25473612;23;20009;-51
2023/11/21 18:00:52;;;;;;;0.90;0.60;;;1.80;99.90;;;;;;25472416;23;20013;-59
2023/11/21 18:10:54;;;;;;;1.60;0.65;;;1.80;99.90;;;;;;25473266;23;20017;-60
2023/11/21 18:20:56;;;;;;;1.35;0.65;;;1.70;99.90;;;;;;25472545;23;20333;-49
2023/11/21 18:30:58;;;;;;;1.20;0.50;;;2.00;99.90;;;;;;25472014;23;20327;-52
2023/11/21 18:41:02;;;;;;;1.13;0.40;;;3.30;99.90;;;;;;25469887;23;20397;-50
2023/11/21 18:51:04;;;;;;;0.57;0.30;;;4.20;99.90;;;;;;25471381;23;20060;-49
2023/11/21 19:01:06;;;;;;;0.45;0.20;;;4.60;99.90;;;;;;25468893;23;20009;-50
2023/11/21 19:11:11;;;;;;;0.40;0.20;;;4.90;99.90;;;;;;25471332;23;20014;-54
2023/11/21 19:21:18;;;;;;;0.38;0.20;;;5.10;99.80;;;;;;25471015;23;20010;-49
2023/11/21 19:31:23;;;;;;;0.30;0.17;;;5.20;99.10;;;;;;25470856;23;20009;-59
2023/11/21 19:41:26;;;;;;;0.73;0.25;;;5.10;98.90;;;;;;25453096;23;20009;-58
2023/11/21 19:51:28;;;;;;;1.20;0.30;;;5.00;99.50;;;;;;25478568;23;20013;-49
2023/11/21 20:01:30;;;;;;;2.25;0.50;;;4.70;99.40;;;;;;25478009;23;20041;-56
2023/11/21 20:11:32;;;;;;;0.80;0.30;;;4.60;99.90;;;;;;25475893;23;20009;-49
2023/11/21 20:21:37;;;;;;;0.60;0.30;;;4.50;99.50;;;;;;25417001;23;20097;-56
2023/11/21 20:31:39;;;;;;;0.57;0.30;;;4.30;99.90;;;;;;25465654;23;20105;-59
2023/11/21 20:41:41;;;;;;;1.05;0.30;;;4.20;99.90;;;;;;25465637;23;20021;-48
2023/11/21 20:51:44;;;;;;;0.38;0.20;;;4.40;99.10;;;;;;25441758;23;20025;-58
2023/11/21 21:01:47;;;;;;;0.47;0.20;;;4.20;99.60;;;;;;25474113;23;20512;-60
2023/11/21 21:11:52;;;;;;;0.25;0.10;;;4.00;99.40;;;;;;25475821;23;20005;-59
2023/11/21 21:21:54;;;;;;;0.47;0.20;;;4.10;98.90;;;;;;25474281;23;20005;-51
2023/11/21 21:31:58;;;;;;;0.40;0.20;;;4.30;97.90;;;;;;25473192;23;20002;-59
2023/11/21 21:42:04;;;;;;;0.47;0.20;;;4.40;97.50;;;;;;25495131;23;20507;-47
2023/11/21 21:52:06;;;;;;;0.15;0.05;;;4.40;97.00;;;;;;25472536;23;20064;-48
2023/11/21 22:02:08;;;;;;;0.32;0.20;;;4.30;97.10;;;;;;25473686;23;20005;-48
2023/11/21 22:12:10;;;;;;;0.98;0.30;;;4.20;97.30;;;;;;25473386;23;20005;-48
2023/11/21 22:22:12;;;;;;;0.43;0.10;;;4.00;97.80;;;;;;25472009;23;20036;-59
2023/11/21 22:32:14;;;;;;;0.43;0.10;;;4.00;97.50;;;;;;25472465;23;20005;-54
2023/11/21 22:42:17;;;;;;;0.40;0.13;;;4.20;97.00;;;;;;25471912;23;20338;-54
2023/11/21 22:52:18;;;;;;;0.60;0.10;;;4.20;96.90;;;;;;25471628;23;20009;-47
2023/11/21 23:02:20;;;;;;;0.50;0.10;;;3.70;97.80;;;;;;25471569;23;20384;-56
2023/11/21 23:12:25;;;;;;;0.65;0.10;;;3.30;98.90;;;;;;25469872;23;20010;-59
2023/11/21 23:22:27;;;;;;;0.30;0.17;;;3.50;98.00;;;;;;25469422;23;20002;-47
2023/11/21 23:32:29;;;;;;;0.30;0.20;;;3.60;98.50;;;;;;25471155;23;20076;-49
2023/11/21 23:42:30;;;;;;;0.32;0.10;;;3.40;98.50;;;;;;25444589;23;20056;-58
2023/11/21 23:52:33;;;;;;;0.20;0.10;;;3.50;98.10;;;;;;25288533;23;20013;-59
